Main page
METAR-TAF:

METAR-TAF

Airports :

Essaouira-Mogador Airport

Essaouira, Morocco

latitude: 31-31N, longitude: 009-47W, elevation: 15 m

Current weather observation

The report was made 32 minutes ago, at 15:00 UTC
Wind 18 kt from the North/Northeast, varying between North and East/Northeast
Temperature 20°C
Humidity 37%
Pressure 1022 hPa
Visibility: 8000 m

METAR: GMMI 281500Z 02018KT 360V060 8000 NSC 20/05 Q1022 NOSIG

Time: 16:32 (15:32 UTC)

Forecast

The report was made 4 hours and 32 minutes ago, at 11:00 UTC
Forecast valid from 28 at 12 UTC to 29 at 18 UTC
Wind 16 kt from the Northeast
Visibility: 8000 m
Few clouds at a height of 2000 ft

TAF: GMMI 281100Z 2812/2918 04016KT 8000 FEW020

Weather observations and forecasts of more than 4000 airports (METAR and TAF reports).

The available stations are represented by yellow and red dots on the map.

Hover mouse over dot to see the name of the station.

Then click to see weather observations and forecasts.

To change the map : click on the green buttons with a black cross to zoom in, on the green button with a dash to zoom out, or on the green arrows for adjacent maps.


METAR-TAF: